| Date | Time | Temp. (oF) | Dew Point (oF) | Rel. Hum. (%) | Press. (in.) | Wind Dir. | Wind Speed (mph) | Hourly Rainfall (in.) |
|
|---|---|---|---|---|---|---|---|---|---|
| 1 | 11/08 | 00:00 | 33 | 27 | 79 | 30.35 | WNW | 0 | 0.00 |
| 2 | 11/07 | 23:00 | 35 | 28 | 78 | 30.36 | SSE | 0 | 0.00 |
| 3 | 11/07 | 22:00 | 36 | 28 | 73 | 30.36 | W | 0 | 0.00 |
| 4 | 11/07 | 21:00 | 38 | 28 | 68 | 30.37 | WNW | 0 | 0.00 |
| 5 | 11/07 | 20:00 | 40 | 27 | 60 | 30.38 | WSW | 0 | 0.00 |
| 6 | 11/07 | 19:00 | 44 | 28 | 54 | 30.39 | WSW | 0 | 0.00 |
| 7 | 11/07 | 18:00 | 48 | 28 | 46 | 30.39 | WSW | 0 | 0.00 |
| 8 | 11/07 | 17:00 | 53 | 28 | 39 | 30.38 | W | 0 | 0.00 |
| 9 | 11/07 | 16:00 | 57 | 28 | 34 | 30.39 | SSE | 0 | 0.00 |
| 10 | 11/07 | 15:00 | 57 | 27 | 32 | 30.40 | SSE | 8 | 0.00 |
| 11 | 11/07 | 14:00 | 57 | 29 | 35 | 30.42 | SSE | 0 | 0.00 |
| 12 | 11/07 | 13:00 | 56 | 29 | 37 | 30.45 | SSE | 8 | 0.00 |
| 13 | 11/07 | 12:00 | 55 | 29 | 38 | 30.48 | S | 7 | 0.00 |
| 14 | 11/07 | 11:00 | 53 | 30 | 43 | 30.51 | S | 8 | 0.00 |
| 15 | 11/07 | 10:00 | 49 | 32 | 52 | 30.52 | SSW | 4 | 0.00 |
| 16 | 11/07 | 09:00 | 44 | 32 | 63 | 30.52 | S | 1 | 0.00 |
| 17 | miss | miss | miss | miss | miss | miss | miss | miss | |
| 18 | 11/07 | 09:47 | 42 | 31 | 67 | 30.52 | WNW | 1 | 0.00 |
| 19 | miss | miss | miss | miss | miss | miss | miss | miss | |
| 20 | 11/07 | 09:45 | 42 | 32 | 68 | 30.52 | W | 2 | 0.00 |
| 21 | miss | miss | miss | miss | miss | miss | miss | miss | |
| 22 | 11/07 | 09:43 | 42 | 32 | 68 | 30.52 | SSE | 1 | 0.00 |
| 23 | miss | miss | miss | miss | miss | miss | miss | miss | |
| 24 | 11/07 | 09:41 | 42 | 32 | 68 | 30.52 | WNW | 4 | 0.00 |
| 25 | miss | miss | miss | miss | miss | miss | miss | miss | |
| 26 | 11/07 | 09:40 | 41 | 31 | 69 | 30.52 | W | 0 | 0.00 |
| 27 | miss | miss | miss | miss | miss | miss | miss | miss | |
| 28 | 11/07 | 09:40 | 41 | 31 | 69 | 30.52 | W | 0 | 0.00 |
| 29 | miss | miss | miss | miss | miss | miss | miss | miss | |
| 30 | 11/07 | 09:40 | 41 | 31 | 69 | 30.52 | W | 0 | 0.00 |
| 31 | miss | miss | miss | miss | miss | miss | miss | miss | |
| 32 | 11/07 | 09:40 | 41 | 31 | 69 | 30.52 | W | 0 | 0.00 |
| 33 | miss | miss | miss | miss | miss | miss | miss | miss | |
| 34 | 11/07 | 09:40 | 41 | 31 | 69 | 30.52 | W | 0 | 0.00 |
| 35 | miss | miss | miss | miss | miss | miss | miss | miss | |
| 36 | 11/07 | 09:40 | 41 | 31 | 69 | 30.52 | W | 0 | 0.00 |
| 37 | miss | miss | miss | miss | miss | miss | miss | miss | |
| 38 | 11/07 | 09:40 | 41 | 31 | 69 | 30.52 | W | 0 | 0.00 |
| 39 | miss | miss | miss | miss | miss | miss | miss | miss | |
| 40 | 11/07 | 09:00 | 34 | 29 | 85 | 30.52 | WNW | 0 | 0.00 |
| 41 | 11/07 | 08:00 | 29 | 24 | 82 | 30.50 | WNW | 0 | 0.00 |
| 42 | 11/07 | 07:00 | 30 | 23 | 78 | 30.49 | SSE | 0 | 0.00 |
| 43 | 11/07 | 06:00 | 31 | 24 | 76 | 30.48 | WSW | 0 | 0.00 |
| 44 | 11/07 | 05:00 | 33 | 24 | 70 | 30.46 | S | 0 | 0.00 |
| 45 | 11/07 | 04:00 | 35 | 25 | 68 | 30.46 | SSE | 0 | 0.00 |
| 46 | 11/07 | 03:00 | 39 | 26 | 61 | 30.46 | SSE | 0 | 0.00 |
| 47 | 11/07 | 02:00 | 40 | 25 | 56 | 30.45 | S | 1 | 0.00 |
| 48 | 11/07 | 01:00 | 41 | 24 | 51 | 30.44 | SW | 0 | 0.00 |
| 49 | 11/07 | 00:00 | 41 | 21 | 46 | 30.43 | SSW | 0 | 0.00 |
| 50 | 11/06 | 23:00 | 43 | 20 | 41 | 30.40 | S | 0 | 0.00 |
| 51 | 11/06 | 22:00 | 45 | 22 | 41 | 30.38 | S | 0 | 0.00 |
| 52 | 11/06 | 21:00 | 47 | 21 | 37 | 30.35 | SSE | 0 | 0.00 |
| 53 | 11/06 | 20:00 | 51 | 21 | 32 | 30.34 | W | 0 | 0.00 |
| 54 | 11/06 | 19:00 | 55 | 20 | 26 | 30.32 | SSE | 4 | 0.00 |
| 55 | 11/06 | 18:00 | 57 | 21 | 25 | 30.30 | SSE | 5 | 0.00 |
| 56 | 11/06 | 17:00 | 61 | 23 | 24 | 30.28 | SSE | 6 | 0.00 |
| 57 | 11/06 | 16:00 | 61 | 24 | 25 | 30.27 | SSE | 15 | 0.00 |
| 58 | 11/06 | 15:00 | 60 | 27 | 29 | 30.27 | SSE | 11 | 0.00 |
| 59 | 11/06 | 14:00 | 61 | 27 | 28 | 30.27 | WNW | 16 | 0.00 |
| 60 | 11/06 | 13:00 | 61 | 29 | 30 | 30.28 | SSE | 18 | 0.00 |
| 61 | 11/06 | 12:00 | 59 | 31 | 36 | 30.29 | SSE | 8 | 0.00 |
| 62 | 11/06 | 11:00 | 58 | 36 | 44 | 30.30 | SSE | 11 | 0.00 |
| 63 | 11/06 | 10:00 | 56 | 41 | 58 | 30.29 | WNW | 4 | 0.00 |
| 64 | 11/06 | 09:00 | 49 | 41 | 76 | 30.29 | W | 1 | 0.00 |
| 65 | 11/06 | 08:00 | 45 | 37 | 75 | 30.27 | WNW | 0 | 0.00 |
| 66 | 11/06 | 07:00 | 46 | 37 | 73 | 30.24 | WNW | 4 | 0.00 |
| 67 | 11/06 | 06:00 | 45 | 35 | 70 | 30.23 | WNW | 1 | 0.00 |
| 68 | 11/06 | 05:00 | 45 | 34 | 67 | 30.21 | W | 0 | 0.00 |
| 69 | 11/06 | 04:00 | 47 | 34 | 62 | 30.22 | S | 0 | 0.00 |
| 70 | 11/06 | 03:00 | 49 | 34 | 58 | 30.22 | W | 0 | 0.00 |
| 71 | 11/06 | 02:00 | 50 | 35 | 57 | 30.22 | W | 0 | 0.00 |
| 72 | 11/06 | 01:00 | 50 | 34 | 56 | 30.22 | W | 5 | 0.00 |